createdAt,value
2018-06-13T00:01:11.246Z,82.30
2018-06-13T00:06:05.804Z,82.27
2018-06-13T00:11:00.221Z,82.96
2018-06-13T00:15:54.773Z,83.06
2018-06-13T00:20:49.191Z,83.56
2018-06-13T00:25:44.800Z,84.32
2018-06-13T00:30:39.232Z,83.31
2018-06-13T00:35:33.621Z,82.94
2018-06-13T00:40:28.021Z,82.65
2018-06-13T00:45:22.470Z,84.26
2018-06-13T00:50:16.889Z,83.50
2018-06-13T00:55:11.296Z,83.70
2018-06-13T01:00:06.090Z,84.29
2018-06-13T01:05:00.512Z,84.68
2018-06-13T01:09:54.940Z,83.86
2018-06-13T01:14:49.369Z,83.87
2018-06-13T01:19:43.785Z,81.86
2018-06-13T01:24:38.181Z,82.97
2018-06-13T01:29:32.734Z,84.12
2018-06-13T01:34:27.126Z,83.62
2018-06-13T01:39:21.561Z,83.80
2018-06-13T01:44:15.964Z,82.70
2018-06-13T01:49:10.386Z,82.11
2018-06-13T01:54:04.791Z,79.90
2018-06-13T01:58:59.209Z,79.35
2018-06-13T02:03:53.602Z,79.75
2018-06-13T02:08:48.007Z,77.96
2018-06-13T02:13:42.413Z,78.39
2018-06-13T02:18:36.833Z,77.93
2018-06-13T02:23:31.297Z,77.53
2018-06-13T02:28:25.701Z,77.37
2018-06-13T02:33:20.097Z,78.11
2018-06-13T02:38:14.496Z,78.69
2018-06-13T02:43:08.919Z,77.79
2018-06-13T02:48:03.320Z,78.12
2018-06-13T02:52:57.724Z,79.58
2018-06-13T02:57:52.165Z,78.51
2018-06-13T03:02:46.557Z,79.22
2018-06-13T03:07:40.984Z,79.65
2018-06-13T03:12:35.379Z,79.42
2018-06-13T03:17:29.809Z,80.63
2018-06-13T03:22:24.237Z,81.60
2018-06-13T03:27:18.670Z,82.09
2018-06-13T03:32:13.086Z,81.70
2018-06-13T03:37:07.525Z,81.53
2018-06-13T03:42:01.921Z,82.38
2018-06-13T03:46:56.348Z,81.86
2018-06-13T03:51:50.750Z,81.81
2018-06-13T03:56:45.164Z,80.76
2018-06-13T04:01:39.644Z,80.82
2018-06-13T04:06:34.060Z,80.60
2018-06-13T04:11:28.512Z,80.89
2018-06-13T04:16:23.024Z,80.04
2018-06-13T04:21:17.432Z,80.86
2018-06-13T04:26:11.848Z,80.35
2018-06-13T04:31:06.329Z,80.72
2018-06-13T04:36:00.725Z,80.01
2018-06-13T04:40:55.179Z,78.98
2018-06-13T04:45:49.645Z,79.59
2018-06-13T04:50:44.066Z,79.18
2018-06-13T04:55:38.466Z,78.15
2018-06-13T05:00:32.856Z,79.19
2018-06-13T05:05:27.312Z,80.62
2018-06-13T05:10:21.736Z,80.18
2018-06-13T05:15:16.197Z,79.39
2018-06-13T05:20:10.636Z,81.44
2018-06-13T05:25:05.214Z,78.70
2018-06-13T05:29:59.668Z,79.19
2018-06-13T05:34:54.280Z,80.84
2018-06-13T05:39:49.042Z,80.73
2018-06-13T05:44:43.549Z,81.70
2018-06-13T05:49:37.938Z,76.27
2018-06-13T05:54:32.382Z,78.60
2018-06-13T05:59:26.799Z,69.76
2018-06-13T06:04:21.189Z,72.01
2018-06-13T06:09:15.578Z,73.13
2018-06-13T06:14:09.994Z,70.75
2018-06-13T06:19:04.569Z,69.29
2018-06-13T06:23:59.529Z,64.41
2018-06-13T06:28:55.311Z,64.59
2018-06-13T06:33:49.840Z,65.92
2018-06-13T06:38:44.311Z,66.52
2018-06-13T06:43:39.602Z,68.22
2018-06-13T06:48:40.624Z,66.70
2018-06-13T06:53:35.282Z,67.29
2018-06-13T06:58:30.946Z,67.99
2018-06-13T07:03:25.421Z,67.37
2018-06-13T07:08:19.809Z,65.32
2018-06-13T07:13:14.752Z,65.33
2018-06-13T07:18:09.349Z,67.12
2018-06-13T07:23:05.468Z,67.48
2018-06-13T07:28:02.368Z,68.84
2018-06-13T07:32:56.936Z,66.74
2018-06-13T07:37:51.340Z,67.23
2018-06-13T07:42:46.040Z,68.18
2018-06-13T07:47:43.260Z,68.05
2018-06-13T07:52:37.689Z,67.29
2018-06-13T07:57:32.802Z,66.24
2018-06-13T08:02:27.232Z,65.17
2018-06-13T08:07:22.521Z,61.54
2018-06-13T08:12:22.356Z,68.96
2018-06-13T08:17:21.189Z,68.00
2018-06-13T08:22:33.409Z,69.23
2018-06-13T08:27:27.877Z,71.05
2018-06-13T08:32:33.624Z,69.35
2018-06-13T08:37:28.451Z,69.93
2018-06-13T08:42:23.213Z,70.11
2018-06-13T08:47:17.971Z,70.47
2018-06-13T08:52:12.408Z,70.96
2018-06-13T08:57:07.016Z,73.27
2018-06-13T09:02:01.653Z,71.00
2018-06-13T09:06:55.801Z,70.04
2018-06-13T09:11:50.554Z,70.10
2018-06-13T09:16:44.747Z,66.50
2018-06-13T09:21:40.376Z,68.12
2018-06-13T09:26:34.891Z,68.47
2018-06-13T09:31:29.258Z,69.50
2018-06-13T09:36:23.880Z,68.63
2018-06-13T09:41:18.445Z,68.29
2018-06-13T09:46:13.007Z,69.48
2018-06-13T09:51:07.590Z,70.18
2018-06-13T09:56:02.115Z,70.24
2018-06-13T10:01:01.855Z,72.14
2018-06-13T10:05:56.515Z,68.59
2018-06-13T10:10:51.684Z,70.98
2018-06-13T10:15:46.700Z,71.51
2018-06-13T10:20:50.424Z,71.53
2018-06-13T10:25:51.840Z,72.35
2018-06-13T10:30:53.570Z,73.21
2018-06-13T10:35:52.617Z,72.77
2018-06-13T10:40:54.267Z,73.19
2018-06-13T10:46:14.154Z,72.83
2018-06-13T10:51:19.685Z,72.53
2018-06-13T10:56:22.796Z,72.46
2018-06-13T11:01:17.591Z,70.53
2018-06-13T11:06:12.118Z,71.87
2018-06-13T11:13:13.738Z,70.72
2018-06-13T11:18:08.576Z,71.55
2018-06-13T11:23:03.078Z,71.91
2018-06-13T11:27:57.609Z,71.57
2018-06-13T11:32:52.078Z,72.66
2018-06-13T11:37:46.532Z,73.19
2018-06-13T11:42:41.353Z,72.69
2018-06-13T11:47:37.104Z,71.88
2018-06-13T11:52:31.625Z,71.02
2018-06-13T11:57:27.071Z,70.13
2018-06-13T12:02:21.716Z,70.25
2018-06-13T12:07:16.148Z,71.34
2018-06-13T12:12:10.594Z,72.04
2018-06-13T12:17:05.298Z,72.34
2018-06-13T12:21:59.917Z,70.19
2018-06-13T12:26:54.522Z,71.23
2018-06-13T12:31:49.048Z,72.12
2018-06-13T12:36:43.586Z,71.06
2018-06-13T12:41:38.160Z,72.02
2018-06-13T12:46:32.665Z,71.29
2018-06-13T12:51:27.281Z,70.79
2018-06-13T12:56:21.856Z,70.77
2018-06-13T13:01:17.249Z,70.75
2018-06-13T13:06:11.701Z,71.49
2018-06-13T13:11:06.862Z,71.13
2018-06-13T13:16:01.505Z,71.16
2018-06-13T13:20:56.931Z,70.84
2018-06-13T13:25:52.641Z,70.24
2018-06-13T13:30:47.123Z,68.71
2018-06-13T13:35:41.824Z,68.36
2018-06-13T13:40:45.984Z,66.09
2018-06-13T13:45:40.814Z,66.26
2018-06-13T13:50:35.696Z,66.32
2018-06-13T13:55:30.188Z,65.72
2018-06-13T14:00:24.761Z,66.58
2018-06-13T14:05:19.334Z,68.92
2018-06-13T14:10:13.816Z,69.66
2018-06-13T14:15:08.444Z,71.51
2018-06-13T14:20:03.909Z,71.19
2018-06-13T14:24:58.353Z,71.20
2018-06-13T14:29:52.936Z,71.41
2018-06-13T14:34:48.509Z,71.54
2018-06-13T14:39:42.976Z,70.82
2018-06-13T14:46:06.925Z,70.26
2018-06-13T14:51:01.532Z,70.98
2018-06-13T14:56:01.053Z,71.85
2018-06-13T15:00:55.565Z,70.58
2018-06-13T15:05:50.097Z,69.95
2018-06-13T15:10:44.960Z,68.76
2018-06-13T15:15:39.617Z,67.66
2018-06-13T15:20:34.290Z,66.69
2018-06-13T15:25:31.724Z,65.78
2018-06-13T15:30:28.756Z,66.56
2018-06-13T15:35:23.364Z,66.33
2018-06-13T15:40:17.857Z,65.34
2018-06-13T15:45:12.422Z,64.59
2018-06-13T15:50:06.988Z,63.17
2018-06-13T15:55:01.612Z,63.99
2018-06-13T15:59:56.062Z,63.59
2018-06-13T16:04:50.673Z,65.61
2018-06-13T16:09:45.135Z,62.98
2018-06-13T16:14:39.633Z,63.94
2018-06-13T16:19:34.189Z,67.69
2018-06-13T16:24:28.690Z,68.40
2018-06-13T16:29:23.257Z,68.32
2018-06-13T16:34:17.774Z,68.41
2018-06-13T16:39:12.234Z,68.43
2018-06-13T16:44:06.987Z,68.29
2018-06-13T16:49:01.417Z,67.33
2018-06-13T16:54:14.112Z,67.54
2018-06-13T16:59:08.570Z,68.37
2018-06-13T17:04:03.064Z,69.43
2018-06-13T17:08:57.481Z,68.34
2018-06-13T17:13:51.955Z,67.18
2018-06-13T17:18:46.419Z,66.54
2018-06-13T17:23:40.650Z,65.59
2018-06-13T17:28:35.298Z,67.59
2018-06-13T17:33:29.940Z,68.37
2018-06-13T17:38:24.313Z,69.27
2018-06-13T17:43:18.960Z,68.64
2018-06-13T17:48:13.466Z,68.34
2018-06-13T17:53:07.881Z,67.78
2018-06-13T17:58:02.925Z,67.60
2018-06-13T18:02:57.360Z,66.92
2018-06-13T18:07:51.876Z,67.56
2018-06-13T18:12:46.334Z,68.50
2018-06-13T18:17:40.767Z,69.29
2018-06-13T18:22:35.309Z,68.54
2018-06-13T18:27:29.928Z,69.28
2018-06-13T18:32:24.352Z,69.20
2018-06-13T18:37:18.859Z,70.36
2018-06-13T18:42:13.296Z,70.07
2018-06-13T18:47:07.766Z,70.46
2018-06-13T18:52:02.307Z,70.22
2018-06-13T18:56:58.813Z,71.04
2018-06-13T19:01:53.270Z,71.19
2018-06-13T19:06:47.712Z,70.51
2018-06-13T19:11:42.483Z,72.49
2018-06-13T19:16:36.880Z,71.92
2018-06-13T19:21:31.443Z,71.28
2018-06-13T19:26:26.000Z,71.11
2018-06-13T19:31:20.489Z,72.45
2018-06-13T19:36:14.967Z,74.16
2018-06-13T19:41:09.461Z,74.19
2018-06-13T19:46:03.892Z,75.58
2018-06-13T19:50:58.375Z,75.03
2018-06-13T19:55:57.996Z,75.12
2018-06-13T20:00:52.533Z,74.96
2018-06-13T20:05:47.035Z,75.88
2018-06-13T20:10:42.270Z,76.16
2018-06-13T20:17:46.173Z,76.20
2018-06-13T20:22:40.656Z,77.41
2018-06-13T20:27:40.453Z,78.54
2018-06-13T20:32:35.537Z,77.67
2018-06-13T20:37:29.973Z,78.47
2018-06-13T20:42:24.524Z,77.59
2018-06-13T20:47:18.926Z,78.26
2018-06-13T20:52:13.436Z,77.12
2018-06-13T20:57:07.655Z,71.54
2018-06-13T21:02:02.106Z,70.29
2018-06-13T21:06:56.525Z,67.49
2018-06-13T21:11:50.969Z,66.54
2018-06-13T21:16:45.450Z,66.41
2018-06-13T21:21:39.864Z,66.43
2018-06-13T21:26:34.372Z,67.33
2018-06-13T21:31:28.776Z,67.01
2018-06-13T21:36:23.328Z,67.77
2018-06-13T21:41:17.790Z,68.02
2018-06-13T21:46:12.297Z,69.05
2018-06-13T21:51:07.101Z,69.54
2018-06-13T21:56:01.595Z,67.88
2018-06-13T22:00:56.073Z,69.12
2018-06-13T22:05:50.508Z,67.86
2018-06-13T22:10:44.934Z,70.14
2018-06-13T22:15:39.460Z,68.80
2018-06-13T22:20:34.014Z,70.28
2018-06-13T22:25:28.613Z,70.70
2018-06-13T22:30:23.163Z,70.10
2018-06-13T22:35:17.634Z,71.69
2018-06-13T22:40:12.093Z,73.59
2018-06-13T22:45:06.724Z,73.62
2018-06-13T22:50:01.165Z,74.30
2018-06-13T22:54:56.464Z,74.65
2018-06-13T22:59:50.963Z,74.32
2018-06-13T23:04:45.413Z,72.83
2018-06-13T23:09:39.991Z,73.37
2018-06-13T23:14:34.570Z,74.90
2018-06-13T23:19:29.388Z,74.79
2018-06-13T23:24:23.829Z,73.08
2018-06-13T23:29:18.284Z,71.57
2018-06-13T23:34:12.782Z,72.18
2018-06-13T23:39:08.976Z,72.36
2018-06-13T23:44:03.805Z,73.57
2018-06-13T23:48:58.252Z,72.51
2018-06-13T23:53:52.777Z,71.77
2018-06-13T23:58:47.327Z,69.81
